createdAt,value
2023-03-13T00:01:37.185Z,8.20
2023-03-13T00:04:05.071Z,8.20
2023-03-13T00:06:36.457Z,8.30
2023-03-13T00:09:07.774Z,8.30
2023-03-13T00:11:36.009Z,8.30
2023-03-13T00:14:05.658Z,8.30
2023-03-13T00:16:35.475Z,8.30
2023-03-13T00:19:04.877Z,8.40
2023-03-13T00:21:32.791Z,8.40
2023-03-13T00:24:01.234Z,8.40
2023-03-13T00:26:30.406Z,8.50
2023-03-13T00:28:58.092Z,8.50
2023-03-13T00:31:29.621Z,8.40
2023-03-13T00:34:02.579Z,8.50
2023-03-13T00:36:34.429Z,8.50
2023-03-13T00:39:06.292Z,8.50
2023-03-13T00:41:37.188Z,8.50
2023-03-13T00:44:06.087Z,8.60
2023-03-13T00:46:33.658Z,8.50
2023-03-13T00:49:01.465Z,8.60
2023-03-13T00:51:29.686Z,8.60
2023-03-13T00:54:02.153Z,8.60
2023-03-13T00:56:30.134Z,8.60
2023-03-13T00:58:59.573Z,8.60
2023-03-13T01:01:33.686Z,8.70
2023-03-13T01:04:06.698Z,8.70
2023-03-13T01:06:38.261Z,8.70
2023-03-13T01:09:07.701Z,8.70
2023-03-13T01:11:38.998Z,8.80
2023-03-13T01:14:15.405Z,8.80
2023-03-13T01:16:43.180Z,8.80
2023-03-13T01:19:15.281Z,8.80
2023-03-13T01:21:44.790Z,8.90
2023-03-13T01:24:13.198Z,8.90
2023-03-13T01:26:41.021Z,8.90
2023-03-13T01:29:08.569Z,8.90
2023-03-13T01:31:37.061Z,9.00
2023-03-13T01:34:08.660Z,9.00
2023-03-13T01:36:37.893Z,9.00
2023-03-13T01:39:06.332Z,9.00
2023-03-13T01:41:34.310Z,9.00
2023-03-13T01:44:01.849Z,9.10
2023-03-13T01:46:33.918Z,9.10
2023-03-13T01:49:36.021Z,9.10
2023-03-13T01:52:25.841Z,9.10
2023-03-13T01:55:17.914Z,9.10
2023-03-13T01:57:52.771Z,9.10
2023-03-13T02:00:31.141Z,9.20
2023-03-13T02:03:11.068Z,9.20
2023-03-13T02:05:41.118Z,9.20
2023-03-13T02:08:23.595Z,9.30
2023-03-13T02:11:16.088Z,9.30
2023-03-13T02:13:44.171Z,9.30
2023-03-13T02:16:12.059Z,9.40
2023-03-13T02:18:39.709Z,9.40
2023-03-13T02:21:36.711Z,9.40
2023-03-13T02:24:56.792Z,9.50
2023-03-13T02:27:26.057Z,9.50
2023-03-13T02:29:53.986Z,9.50
2023-03-13T02:32:23.242Z,9.50
2023-03-13T02:34:56.365Z,9.50
2023-03-13T02:37:28.066Z,9.50
2023-03-13T02:39:59.431Z,9.50
2023-03-13T02:42:29.161Z,9.60
2023-03-13T02:44:56.854Z,9.60
2023-03-13T02:47:25.579Z,9.60
2023-03-13T02:49:54.801Z,9.60
2023-03-13T02:52:28.536Z,9.60
2023-03-13T02:55:06.588Z,9.60
2023-03-13T02:57:35.321Z,9.60
2023-03-13T03:00:06.862Z,9.60
2023-03-13T03:02:35.049Z,9.70
2023-03-13T03:05:02.519Z,9.70
2023-03-13T03:07:30.162Z,9.70
2023-03-13T03:09:57.935Z,9.70
2023-03-13T03:12:25.539Z,9.70
2023-03-13T03:14:53.704Z,9.80
2023-03-13T03:17:21.660Z,9.70
2023-03-13T03:19:49.277Z,9.80
2023-03-13T03:22:16.794Z,9.80
2023-03-13T03:24:44.376Z,9.90
2023-03-13T03:27:11.924Z,9.90
2023-03-13T03:29:45.562Z,9.90
2023-03-13T03:32:13.106Z,10.00
2023-03-13T03:34:40.785Z,10.00
2023-03-13T03:37:09.259Z,10.00
2023-03-13T03:39:36.953Z,10.10
2023-03-13T03:42:06.375Z,10.10
2023-03-13T03:44:34.035Z,10.10
2023-03-13T03:47:01.749Z,10.10
2023-03-13T03:49:34.267Z,10.20
2023-03-13T03:52:01.794Z,10.20
2023-03-13T03:54:35.168Z,10.20
2023-03-13T03:57:03.837Z,10.20
2023-03-13T03:59:31.426Z,10.20
2023-03-13T04:02:04.047Z,10.20
2023-03-13T04:04:33.397Z,10.20
2023-03-13T04:07:19.538Z,10.20
2023-03-13T04:09:47.231Z,10.30
2023-03-13T04:12:22.511Z,10.40
2023-03-13T04:14:52.837Z,10.40
2023-03-13T04:17:21.468Z,10.50
2023-03-13T04:19:49.130Z,10.50
2023-03-13T04:22:16.999Z,10.50
2023-03-13T04:24:51.455Z,10.60
2023-03-13T04:27:20.700Z,10.60
2023-03-13T04:29:49.207Z,10.50
2023-03-13T04:32:35.264Z,10.60
2023-03-13T04:35:21.537Z,10.60
2023-03-13T04:38:14.517Z,10.60
2023-03-13T04:41:06.007Z,10.60
2023-03-13T04:44:12.049Z,10.60
2023-03-13T04:47:02.253Z,10.70
2023-03-13T04:50:00.977Z,10.70
2023-03-13T04:52:44.722Z,10.70
2023-03-13T04:55:21.666Z,10.70
2023-03-13T04:58:06.627Z,10.70
2023-03-13T05:00:47.707Z,10.80
2023-03-13T05:03:35.354Z,10.80
2023-03-13T05:06:34.857Z,10.70
2023-03-13T05:09:24.774Z,10.80
2023-03-13T05:12:10.358Z,10.80
2023-03-13T05:14:53.718Z,10.80
2023-03-13T05:17:35.377Z,10.80
2023-03-13T05:20:22.301Z,10.90
2023-03-13T05:23:01.120Z,10.90
2023-03-13T05:25:50.423Z,10.90
2023-03-13T05:28:53.352Z,10.90
2023-03-13T05:31:34.170Z,10.90
2023-03-13T05:34:01.680Z,11.00
2023-03-13T05:36:48.199Z,11.00
2023-03-13T05:39:34.225Z,11.00
2023-03-13T05:42:22.094Z,11.00
2023-03-13T05:45:03.516Z,11.00
2023-03-13T05:47:48.630Z,11.00
2023-03-13T05:50:42.215Z,11.00
2023-03-13T05:53:32.850Z,11.10
2023-03-13T05:56:23.605Z,11.10
2023-03-13T05:59:04.932Z,11.10
2023-03-13T06:01:40.438Z,11.10
2023-03-13T06:04:35.588Z,11.20
2023-03-13T06:07:03.214Z,11.20
2023-03-13T06:09:30.818Z,11.20
2023-03-13T06:11:59.914Z,11.20
2023-03-13T06:14:27.598Z,11.30
2023-03-13T06:17:08.263Z,11.30
2023-03-13T06:19:35.743Z,11.30
2023-03-13T06:22:03.282Z,11.30
2023-03-13T06:24:31.065Z,11.40
2023-03-13T06:26:58.625Z,11.40
2023-03-13T06:29:26.176Z,11.40
2023-03-13T06:31:53.793Z,11.40
2023-03-13T06:34:21.373Z,11.40
2023-03-13T06:36:48.880Z,11.50
2023-03-13T06:39:16.415Z,11.50
2023-03-13T06:41:43.939Z,11.50
2023-03-13T06:44:11.445Z,11.60
2023-03-13T06:46:39.407Z,11.60
2023-03-13T06:49:06.994Z,11.60
2023-03-13T06:51:34.493Z,11.60
2023-03-13T06:54:03.745Z,11.70
2023-03-13T06:56:32.243Z,11.70
2023-03-13T06:59:00.194Z,11.70
2023-03-13T07:01:27.806Z,11.70
2023-03-13T07:03:55.410Z,11.70
2023-03-13T07:06:23.477Z,11.80
2023-03-13T07:08:51.078Z,11.80
2023-03-13T07:11:18.935Z,11.80
2023-03-13T07:13:46.613Z,11.80
2023-03-13T07:16:14.537Z,11.80
2023-03-13T07:18:42.124Z,11.80
2023-03-13T07:21:10.999Z,11.80
2023-03-13T07:23:38.896Z,11.80
2023-03-13T07:26:15.698Z,11.90
2023-03-13T07:28:43.680Z,11.90
2023-03-13T07:31:15.666Z,11.90
2023-03-13T07:33:45.353Z,11.90
2023-03-13T07:36:15.158Z,11.90
2023-03-13T07:38:43.858Z,12.00
2023-03-13T07:41:15.077Z,12.00
2023-03-13T07:43:43.047Z,12.10
2023-03-13T07:46:14.635Z,12.10
2023-03-13T07:48:43.398Z,12.10
2023-03-13T07:51:16.324Z,12.20
2023-03-13T07:53:47.214Z,12.20
2023-03-13T07:56:18.609Z,12.30
2023-03-13T07:58:46.954Z,12.30
2023-03-13T08:01:24.446Z,12.30
2023-03-13T08:03:55.785Z,12.40
2023-03-13T08:06:26.188Z,12.50
2023-03-13T08:08:58.165Z,12.60
2023-03-13T08:11:27.847Z,12.60
2023-03-13T08:13:57.339Z,12.60
2023-03-13T08:16:33.996Z,12.60
2023-03-13T08:19:05.776Z,12.70
2023-03-13T08:21:36.553Z,12.60
2023-03-13T08:24:08.051Z,12.70
2023-03-13T08:26:38.776Z,12.60
2023-03-13T08:29:13.952Z,12.60
2023-03-13T08:31:52.527Z,12.70
2023-03-13T08:34:20.347Z,12.70
2023-03-13T08:36:48.206Z,12.80
2023-03-13T08:39:21.596Z,12.80
2023-03-13T08:41:49.419Z,12.90
2023-03-13T08:44:19.988Z,12.90
2023-03-13T08:46:49.235Z,13.00
2023-03-13T08:49:17.896Z,13.00
2023-03-13T08:51:45.450Z,13.00
2023-03-13T08:54:13.094Z,13.10
2023-03-13T08:56:41.621Z,13.20
2023-03-13T08:59:10.187Z,13.20
2023-03-13T09:01:37.726Z,13.30
2023-03-13T09:04:06.608Z,13.40
2023-03-13T09:06:37.068Z,13.40
2023-03-13T09:09:06.730Z,13.40
2023-03-13T09:11:36.281Z,13.50
2023-03-13T09:14:03.931Z,13.60
2023-03-13T09:16:33.726Z,13.70
2023-03-13T09:19:01.914Z,13.70
2023-03-13T09:21:33.312Z,13.80
2023-03-13T09:24:02.055Z,13.80
2023-03-13T09:26:29.945Z,13.80
2023-03-13T09:28:58.051Z,13.90
2023-03-13T09:31:31.501Z,13.90
2023-03-13T09:34:00.306Z,13.90
2023-03-13T09:36:28.669Z,13.90
2023-03-13T09:38:58.728Z,13.90
2023-03-13T09:42:01.659Z,14.00
2023-03-13T09:44:36.728Z,14.10
2023-03-13T09:47:16.217Z,14.10
2023-03-13T09:50:10.855Z,14.10
2023-03-13T09:52:41.951Z,14.10
2023-03-13T09:55:21.882Z,14.20
2023-03-13T09:58:20.199Z,14.20
2023-03-13T10:01:09.558Z,14.20
2023-03-13T10:03:52.217Z,14.10
2023-03-13T10:06:23.106Z,14.10
2023-03-13T10:08:52.716Z,14.10
2023-03-13T10:11:42.684Z,14.10
2023-03-13T10:14:54.501Z,14.10
2023-03-13T10:17:39.831Z,14.30
2023-03-13T10:20:25.415Z,14.40
2023-03-13T10:23:32.902Z,14.50
2023-03-13T10:26:00.415Z,14.50
2023-03-13T10:28:28.020Z,14.50
2023-03-13T10:31:17.545Z,14.60
2023-03-13T10:33:45.240Z,14.70
2023-03-13T10:36:14.249Z,14.80
2023-03-13T10:38:53.330Z,14.80
2023-03-13T10:41:33.379Z,14.70
2023-03-13T10:44:15.244Z,14.70
2023-03-13T10:46:46.430Z,14.70
2023-03-13T10:49:24.532Z,14.70
2023-03-13T10:52:07.927Z,14.70
2023-03-13T10:54:39.489Z,14.90
2023-03-13T10:57:38.168Z,14.90
2023-03-13T11:00:37.197Z,14.90
2023-03-13T11:03:26.428Z,14.90
2023-03-13T11:06:03.773Z,15.10
2023-03-13T11:08:36.490Z,15.30
2023-03-13T11:11:16.749Z,15.30
2023-03-13T11:13:45.081Z,15.30
2023-03-13T11:16:29.052Z,15.40
2023-03-13T11:19:38.687Z,15.50
2023-03-13T11:22:14.962Z,15.60
2023-03-13T11:24:59.103Z,15.70
2023-03-13T11:27:54.918Z,15.80
2023-03-13T11:31:09.776Z,15.80
2023-03-13T11:33:59.066Z,15.80
2023-03-13T11:36:46.419Z,15.90
2023-03-13T11:39:43.985Z,15.90
2023-03-13T11:42:57.497Z,15.80
2023-03-13T11:46:15.570Z,15.80
2023-03-13T11:49:04.875Z,15.80
2023-03-13T11:52:05.551Z,15.80
2023-03-13T11:55:16.967Z,15.90
2023-03-13T11:58:09.549Z,16.00
2023-03-13T12:00:46.044Z,16.10
2023-03-13T12:03:54.895Z,16.20
2023-03-13T12:06:37.585Z,16.30
2023-03-13T12:09:37.258Z,16.30
2023-03-13T12:12:33.144Z,16.40
2023-03-13T12:15:27.933Z,16.40
2023-03-13T12:18:33.045Z,16.40
2023-03-13T12:21:57.948Z,16.50
2023-03-13T12:24:42.833Z,16.70
2023-03-13T12:27:20.998Z,16.70
2023-03-13T12:30:06.066Z,16.70
2023-03-13T12:33:24.433Z,16.70
2023-03-13T12:36:26.536Z,16.80
2023-03-13T12:39:06.620Z,16.80
2023-03-13T12:41:43.689Z,16.80
2023-03-13T12:44:19.375Z,16.90
2023-03-13T12:47:08.187Z,17.00
2023-03-13T12:50:24.003Z,17.10
2023-03-13T12:53:33.143Z,17.20
2023-03-13T12:56:30.405Z,17.30
2023-03-13T12:59:11.028Z,17.50
2023-03-13T13:01:46.033Z,17.50
2023-03-13T13:04:24.524Z,17.70
2023-03-13T13:07:06.539Z,17.90
2023-03-13T13:09:39.203Z,18.00
2023-03-13T13:12:25.646Z,18.10
2023-03-13T13:14:53.011Z,18.10
2023-03-13T13:17:46.147Z,18.20
2023-03-13T13:20:41.721Z,18.20
2023-03-13T13:23:39.377Z,18.30
2023-03-13T13:26:33.570Z,18.40
2023-03-13T13:29:21.831Z,18.40
2023-03-13T13:32:00.198Z,18.40
2023-03-13T13:34:30.923Z,18.40
2023-03-13T13:37:04.017Z,18.50
2023-03-13T13:39:52.684Z,18.60
2023-03-13T13:42:41.764Z,18.60
2023-03-13T13:45:15.667Z,18.60
2023-03-13T13:47:49.565Z,18.60
2023-03-13T13:50:26.864Z,18.60
2023-03-13T13:53:30.369Z,18.60
2023-03-13T13:55:58.678Z,18.50
2023-03-13T13:58:30.469Z,18.60
2023-03-13T14:01:10.851Z,18.50
2023-03-13T14:03:43.092Z,18.50
2023-03-13T14:06:35.089Z,18.50
2023-03-13T14:09:20.163Z,18.60
2023-03-13T14:11:47.810Z,18.70
2023-03-13T14:14:22.596Z,18.80
2023-03-13T14:16:59.161Z,18.70
2023-03-13T14:19:30.928Z,18.60
2023-03-13T14:22:08.432Z,18.60
2023-03-13T14:24:37.501Z,18.70
2023-03-13T14:27:20.470Z,18.70
2023-03-13T14:30:09.432Z,18.90
2023-03-13T14:32:38.872Z,19.00
2023-03-13T14:35:09.308Z,19.10
2023-03-13T14:37:50.264Z,19.30
2023-03-13T14:40:26.139Z,19.40
2023-03-13T14:43:01.297Z,19.50
2023-03-13T14:45:33.326Z,19.60
2023-03-13T14:48:21.698Z,19.50
2023-03-13T14:50:59.627Z,19.70
2023-03-13T14:53:36.515Z,19.70
2023-03-13T14:56:18.995Z,19.70
2023-03-13T14:58:48.613Z,19.70
2023-03-13T15:01:30.661Z,19.70
2023-03-13T15:03:58.248Z,19.80
2023-03-13T15:06:26.738Z,19.90
2023-03-13T15:09:21.880Z,20.00
2023-03-13T15:12:00.341Z,20.10
2023-03-13T15:14:46.756Z,20.10
2023-03-13T15:17:23.931Z,20.10
2023-03-13T15:19:57.182Z,20.00
2023-03-13T15:22:40.398Z,19.90
2023-03-13T15:25:18.620Z,19.90
2023-03-13T15:27:47.327Z,19.90
2023-03-13T15:30:23.246Z,19.90
2023-03-13T15:32:51.876Z,19.90
2023-03-13T15:35:28.310Z,19.90
2023-03-13T15:38:01.544Z,20.00
2023-03-13T15:40:30.924Z,20.00
2023-03-13T15:42:59.449Z,20.00
2023-03-13T15:45:27.055Z,19.90
2023-03-13T15:47:54.845Z,19.90
2023-03-13T15:50:25.456Z,19.80
2023-03-13T15:52:53.043Z,19.80
2023-03-13T15:55:20.513Z,19.70
2023-03-13T15:57:50.485Z,19.70
2023-03-13T16:00:21.553Z,19.80
2023-03-13T16:02:49.349Z,19.90
2023-03-13T16:05:19.000Z,19.90
2023-03-13T16:07:46.804Z,20.00
2023-03-13T16:10:25.686Z,20.00
2023-03-13T16:12:56.362Z,20.00
2023-03-13T16:15:24.040Z,19.90
2023-03-13T16:17:51.583Z,19.80
2023-03-13T16:20:23.478Z,19.80
2023-03-13T16:22:53.411Z,19.70
2023-03-13T16:25:22.621Z,19.60
2023-03-13T16:27:50.909Z,19.50
2023-03-13T16:30:31.419Z,19.40
2023-03-13T16:33:00.219Z,19.30
2023-03-13T16:35:29.342Z,19.30
2023-03-13T16:37:57.735Z,19.20
2023-03-13T16:40:34.124Z,19.10
2023-03-13T16:43:02.452Z,19.00
2023-03-13T16:45:30.024Z,19.00
2023-03-13T16:47:57.959Z,19.00
2023-03-13T16:50:38.569Z,19.00
2023-03-13T16:53:06.171Z,18.90
2023-03-13T16:55:36.611Z,18.80
2023-03-13T16:58:05.080Z,18.90
2023-03-13T17:00:33.108Z,18.80
2023-03-13T17:03:01.408Z,18.80
2023-03-13T17:05:29.242Z,18.80
2023-03-13T17:07:56.845Z,18.80
2023-03-13T17:10:31.284Z,18.70
2023-03-13T17:12:59.522Z,18.60
2023-03-13T17:15:28.613Z,18.60
2023-03-13T17:17:56.672Z,18.50
2023-03-13T17:20:28.982Z,18.40
2023-03-13T17:22:57.085Z,18.30
2023-03-13T17:25:25.204Z,18.30
2023-03-13T17:27:53.390Z,18.30
2023-03-13T17:30:26.181Z,18.40
2023-03-13T17:32:54.518Z,18.30
2023-03-13T17:35:23.563Z,18.20
2023-03-13T17:37:51.276Z,18.20
2023-03-13T17:40:23.644Z,18.20
2023-03-13T17:42:51.271Z,18.20
2023-03-13T17:45:19.704Z,18.10
2023-03-13T17:47:49.230Z,18.10
2023-03-13T17:50:20.927Z,18.10
2023-03-13T17:52:48.522Z,18.10
2023-03-13T17:55:16.478Z,18.10
2023-03-13T17:57:43.997Z,18.10
2023-03-13T18:00:28.812Z,18.10
2023-03-13T18:02:58.949Z,18.00
2023-03-13T18:05:26.960Z,18.00
2023-03-13T18:07:57.896Z,17.90
2023-03-13T18:10:28.833Z,17.90
2023-03-13T18:12:57.466Z,17.90
2023-03-13T18:15:26.771Z,17.80
2023-03-13T18:17:54.583Z,17.50
2023-03-13T18:20:29.925Z,17.30
2023-03-13T18:23:00.174Z,17.10
2023-03-13T18:25:29.729Z,16.40
2023-03-13T18:27:57.475Z,15.50
2023-03-13T18:30:27.388Z,14.90
2023-03-13T18:32:55.013Z,14.40
2023-03-13T18:35:22.539Z,14.20
2023-03-13T18:37:50.270Z,14.00
2023-03-13T18:40:20.952Z,13.80
2023-03-13T18:42:48.626Z,13.50
2023-03-13T18:45:19.341Z,13.50
2023-03-13T18:47:48.172Z,13.40
2023-03-13T18:50:29.709Z,13.30
2023-03-13T18:53:00.090Z,13.40
2023-03-13T18:55:30.498Z,13.40
2023-03-13T18:57:58.058Z,13.50
2023-03-13T19:00:29.121Z,13.50
2023-03-13T19:02:56.896Z,13.60
2023-03-13T19:05:24.783Z,13.60
2023-03-13T19:07:52.322Z,13.70
2023-03-13T19:10:31.258Z,13.60
2023-03-13T19:12:58.864Z,13.70
2023-03-13T19:15:30.132Z,13.70
2023-03-13T19:18:02.932Z,13.60
2023-03-13T19:20:30.849Z,13.40
2023-03-13T19:23:00.661Z,13.20
2023-03-13T19:25:29.301Z,13.20
2023-03-13T19:27:56.857Z,13.30
2023-03-13T19:30:25.815Z,13.20
2023-03-13T19:32:53.472Z,13.30
2023-03-13T19:35:21.962Z,13.40
2023-03-13T19:37:49.872Z,13.30
2023-03-13T19:40:25.649Z,13.10
2023-03-13T19:42:53.242Z,13.00
2023-03-13T19:45:21.974Z,12.90
2023-03-13T19:47:49.787Z,12.80
2023-03-13T19:50:25.801Z,12.70
2023-03-13T19:52:53.702Z,12.50
2023-03-13T19:55:21.190Z,12.40
2023-03-13T19:57:48.699Z,12.30
2023-03-13T20:00:25.937Z,12.20
2023-03-13T20:02:55.166Z,12.00
2023-03-13T20:05:23.824Z,12.10
2023-03-13T20:07:53.262Z,11.60
2023-03-13T20:10:21.734Z,11.00
2023-03-13T20:12:49.326Z,10.40
2023-03-13T20:15:17.352Z,10.20
2023-03-13T20:17:44.950Z,10.00
2023-03-13T20:20:13.599Z,9.80
2023-03-13T20:22:41.683Z,9.70
2023-03-13T20:25:10.428Z,9.60
2023-03-13T20:27:39.077Z,9.50
2023-03-13T20:30:07.711Z,9.60
2023-03-13T20:32:36.754Z,9.60
2023-03-13T20:35:10.438Z,9.60
2023-03-13T20:37:37.979Z,9.60
2023-03-13T20:40:07.657Z,9.60
2023-03-13T20:42:37.568Z,9.70
2023-03-13T20:45:09.281Z,9.80
2023-03-13T20:47:36.865Z,9.80
2023-03-13T20:50:04.832Z,10.00
2023-03-13T20:52:33.159Z,10.10
2023-03-13T20:55:00.680Z,10.30
2023-03-13T20:57:28.169Z,10.30
2023-03-13T20:59:55.732Z,10.40
2023-03-13T21:02:23.376Z,10.40
2023-03-13T21:04:50.915Z,10.50
2023-03-13T21:07:18.456Z,10.40
2023-03-13T21:09:45.972Z,10.40
2023-03-13T21:12:13.530Z,10.40
2023-03-13T21:14:41.280Z,10.50
2023-03-13T21:17:10.781Z,10.50
2023-03-13T21:19:38.330Z,10.50
2023-03-13T21:22:06.163Z,10.50
2023-03-13T21:24:33.738Z,10.50
2023-03-13T21:27:01.262Z,10.50
2023-03-13T21:29:28.793Z,10.50
2023-03-13T21:31:56.388Z,10.50
2023-03-13T21:34:23.948Z,10.50
2023-03-13T21:36:51.534Z,10.50
2023-03-13T21:39:19.451Z,10.50
2023-03-13T21:41:47.042Z,10.50
2023-03-13T21:44:19.429Z,10.60
2023-03-13T21:46:48.487Z,10.50
2023-03-13T21:49:16.057Z,10.50
2023-03-13T21:51:43.719Z,10.40
2023-03-13T21:54:11.299Z,10.40
2023-03-13T21:56:38.809Z,10.40
2023-03-13T21:59:06.317Z,10.40
2023-03-13T22:01:33.863Z,10.30
2023-03-13T22:04:01.358Z,10.30
2023-03-13T22:06:28.865Z,10.20
2023-03-13T22:08:56.423Z,10.30
2023-03-13T22:11:23.972Z,10.30
2023-03-13T22:13:52.477Z,10.30
2023-03-13T22:16:21.047Z,10.20
2023-03-13T22:18:48.531Z,10.20
2023-03-13T22:21:16.093Z,10.20
2023-03-13T22:23:44.417Z,10.30
2023-03-13T22:26:13.709Z,10.20
2023-03-13T22:28:41.302Z,10.20
2023-03-13T22:31:11.202Z,10.30
2023-03-13T22:33:38.761Z,10.30
2023-03-13T22:36:07.213Z,10.30
2023-03-13T22:38:38.833Z,10.30
2023-03-13T22:41:13.359Z,10.30
2023-03-13T22:43:40.894Z,10.30
2023-03-13T22:46:11.179Z,10.20
2023-03-13T22:48:39.673Z,10.20
2023-03-13T22:51:11.762Z,10.30
2023-03-13T22:53:41.713Z,10.30
2023-03-13T22:56:11.617Z,10.30
2023-03-13T22:58:41.156Z,10.30
2023-03-13T23:01:17.984Z,10.30
2023-03-13T23:03:46.047Z,10.40
2023-03-13T23:06:18.742Z,10.30
2023-03-13T23:08:47.182Z,10.30
2023-03-13T23:11:15.756Z,10.30
2023-03-13T23:13:43.493Z,10.20
2023-03-13T23:16:12.573Z,10.20
2023-03-13T23:18:40.601Z,10.20
2023-03-13T23:21:12.648Z,10.20
2023-03-13T23:23:40.988Z,10.30
2023-03-13T23:26:12.822Z,10.20
2023-03-13T23:28:40.625Z,10.20
2023-03-13T23:31:20.757Z,10.20
2023-03-13T23:33:49.399Z,10.10
2023-03-13T23:36:18.834Z,10.10
2023-03-13T23:38:50.767Z,10.10
2023-03-13T23:41:19.972Z,10.10
2023-03-13T23:43:47.731Z,10.10
2023-03-13T23:46:18.429Z,10.10
2023-03-13T23:48:45.987Z,10.10
2023-03-13T23:51:13.820Z,10.20
2023-03-13T23:53:42.921Z,10.20
2023-03-13T23:56:11.991Z,10.20
2023-03-13T23:58:39.643Z,10.20
